createdAt,value
2018-10-12T00:02:13.573Z,76.50
2018-10-12T00:04:42.062Z,76.60
2018-10-12T00:07:10.799Z,76.60
2018-10-12T00:09:39.206Z,76.60
2018-10-12T00:12:07.591Z,76.70
2018-10-12T00:14:36.168Z,76.50
2018-10-12T00:17:04.478Z,76.50
2018-10-12T00:19:32.852Z,76.40
2018-10-12T00:22:01.257Z,76.40
2018-10-12T00:24:29.911Z,76.20
2018-10-12T00:26:58.356Z,76.00
2018-10-12T00:29:27.308Z,76.20
2018-10-12T00:31:55.994Z,76.00
2018-10-12T00:34:24.737Z,76.00
2018-10-12T00:36:53.307Z,76.20
2018-10-12T00:39:22.296Z,76.00
2018-10-12T00:41:50.740Z,75.70
2018-10-12T00:44:19.170Z,75.70
2018-10-12T00:46:47.578Z,75.90
2018-10-12T00:49:15.919Z,75.80
2018-10-12T00:51:44.233Z,76.00
2018-10-12T00:54:12.692Z,75.80
2018-10-12T00:56:41.085Z,75.40
2018-10-12T00:59:09.531Z,75.60
2018-10-12T01:06:37.353Z,74.40
2018-10-12T01:09:06.098Z,75.60
2018-10-12T01:11:39.599Z,76.20
2018-10-12T01:14:07.877Z,77.40
2018-10-12T01:16:36.231Z,76.20
2018-10-12T01:19:04.481Z,76.20
2018-10-12T01:21:32.681Z,76.30
2018-10-12T01:24:01.873Z,76.80
2018-10-12T01:26:30.516Z,76.80
2018-10-12T01:28:59.021Z,76.80
2018-10-12T01:31:29.242Z,77.10
2018-10-12T01:33:57.441Z,77.90
2018-10-12T01:36:25.748Z,77.50
2018-10-12T01:38:54.033Z,77.90
2018-10-12T01:41:22.382Z,78.20
2018-10-12T01:43:50.713Z,78.70
2018-10-12T01:46:19.029Z,79.00
2018-10-12T01:48:47.309Z,79.10
2018-10-12T01:51:15.638Z,79.10
2018-10-12T01:53:43.984Z,79.30
2018-10-12T01:56:12.308Z,79.60
2018-10-12T01:58:40.621Z,79.70
2018-10-12T02:01:08.899Z,79.00
2018-10-12T02:03:37.441Z,79.00
2018-10-12T02:06:05.793Z,79.30
2018-10-12T02:08:34.100Z,79.30
2018-10-12T02:11:02.458Z,79.10
2018-10-12T02:13:30.725Z,79.00
2018-10-12T02:15:59.047Z,79.00
2018-10-12T02:18:30.298Z,78.80
2018-10-12T02:20:58.590Z,78.60
2018-10-12T02:23:26.846Z,78.80
2018-10-12T02:25:55.147Z,78.80
2018-10-12T02:28:23.365Z,78.70
2018-10-12T02:30:51.661Z,78.90
2018-10-12T02:33:19.995Z,79.10
2018-10-12T02:35:48.389Z,79.10
2018-10-12T02:38:17.004Z,79.50
2018-10-12T02:40:45.520Z,80.00
2018-10-12T02:43:13.885Z,79.90
2018-10-12T02:45:42.122Z,80.20
2018-10-12T02:48:11.326Z,81.10
2018-10-12T02:50:39.649Z,81.50
2018-10-12T02:53:07.909Z,81.70
2018-10-12T02:55:36.164Z,81.50
2018-10-12T02:58:04.430Z,81.80
2018-10-12T03:00:32.789Z,82.20
2018-10-12T03:03:01.094Z,82.30
2018-10-12T03:05:29.357Z,82.30
2018-10-12T03:07:57.597Z,82.30
2018-10-12T03:10:25.900Z,82.70
2018-10-12T03:12:54.118Z,82.30
2018-10-12T03:15:22.494Z,82.30
2018-10-12T03:17:50.798Z,81.70
2018-10-12T03:20:19.076Z,82.00
2018-10-12T03:22:47.518Z,82.30
2018-10-12T03:25:15.917Z,82.30
2018-10-12T03:30:41.964Z,81.20
2018-10-12T03:33:10.765Z,82.00
2018-10-12T03:35:40.360Z,82.20
2018-10-12T03:38:09.027Z,82.30
2018-10-12T03:40:45.740Z,82.30
2018-10-12T03:43:14.513Z,82.20
2018-10-12T03:45:43.793Z,82.30
2018-10-12T03:48:12.793Z,82.40
2018-10-12T03:50:41.640Z,81.90
2018-10-12T03:53:27.392Z,81.90
2018-10-12T03:55:56.045Z,82.30
2018-10-12T03:58:24.857Z,83.00
2018-10-12T04:00:53.494Z,82.00
2018-10-12T04:03:22.493Z,81.70
2018-10-12T04:05:51.308Z,81.80
2018-10-12T04:13:13.740Z,82.00
2018-10-12T04:15:41.989Z,82.40
2018-10-12T04:18:10.221Z,82.60
2018-10-12T04:20:38.550Z,82.60
2018-10-12T04:23:06.971Z,82.60
2018-10-12T04:31:40.911Z,82.30
2018-10-12T04:34:09.129Z,82.60
2018-10-12T04:36:37.466Z,82.80
2018-10-12T04:39:17.205Z,82.60
2018-10-12T04:41:45.501Z,82.40
2018-10-12T04:44:13.821Z,83.00
2018-10-12T04:46:43.859Z,83.00
2018-10-12T04:49:13.249Z,83.30
2018-10-12T04:51:45.926Z,83.10
2018-10-12T04:54:14.542Z,83.00
2018-10-12T04:56:42.796Z,83.00
2018-10-12T04:59:11.153Z,83.00
2018-10-12T05:01:39.425Z,83.00
2018-10-12T05:04:07.614Z,82.60
2018-10-12T05:06:35.942Z,82.60
2018-10-12T05:09:05.153Z,83.00
2018-10-12T05:11:33.562Z,83.30
2018-10-12T05:14:01.958Z,83.20
2018-10-12T05:16:30.217Z,84.00
2018-10-12T05:18:58.474Z,83.80
2018-10-12T05:21:26.766Z,84.00
2018-10-12T05:23:55.068Z,84.50
2018-10-12T05:26:23.530Z,85.20
2018-10-12T05:28:51.825Z,85.50
2018-10-12T05:31:20.091Z,85.40
2018-10-12T05:33:48.367Z,85.70
2018-10-12T05:36:16.677Z,86.00
2018-10-12T05:38:44.980Z,86.60
2018-10-12T05:41:13.287Z,87.20
2018-10-12T05:43:41.619Z,87.30
2018-10-12T05:46:09.849Z,87.40
2018-10-12T05:48:49.529Z,87.60
2018-10-12T05:51:18.794Z,87.90
2018-10-12T05:53:47.635Z,88.10
2018-10-12T05:56:17.881Z,87.80
2018-10-12T05:58:46.717Z,87.80
2018-10-12T06:01:15.162Z,88.00
2018-10-12T06:03:43.653Z,88.00
2018-10-12T06:06:12.046Z,88.10
2018-10-12T06:08:40.421Z,88.20
2018-10-12T06:11:09.243Z,88.00
2018-10-12T06:13:37.465Z,87.70
2018-10-12T06:16:06.030Z,87.60
2018-10-12T06:18:34.383Z,87.60
2018-10-12T06:21:02.620Z,87.60
2018-10-12T06:23:30.855Z,87.60
2018-10-12T06:25:59.218Z,87.30
2018-10-12T06:28:27.405Z,87.10
2018-10-12T06:30:55.829Z,86.70
2018-10-12T06:38:24.774Z,86.40
2018-10-12T06:40:53.098Z,85.60
2018-10-12T06:43:21.339Z,85.60
2018-10-12T06:45:49.649Z,85.30
2018-10-12T06:48:17.846Z,85.40
2018-10-12T06:50:46.086Z,85.40
2018-10-12T06:53:14.516Z,85.20
2018-10-12T07:01:48.677Z,84.20
2018-10-12T07:04:17.033Z,83.90
2018-10-12T07:06:45.289Z,83.10
2018-10-12T07:09:13.897Z,82.20
2018-10-12T07:11:42.089Z,81.50
2018-10-12T07:14:10.362Z,81.40
2018-10-12T07:16:38.588Z,80.30
2018-10-12T07:19:06.771Z,80.00
2018-10-12T07:21:34.941Z,80.20
2018-10-12T07:24:03.257Z,79.70
2018-10-12T07:26:31.527Z,79.60
2018-10-12T07:28:59.749Z,79.20
2018-10-12T07:31:27.938Z,78.40
2018-10-12T07:33:56.167Z,78.00
2018-10-12T07:36:24.448Z,76.10
2018-10-12T07:38:52.737Z,74.40
2018-10-12T07:41:22.195Z,73.80
2018-10-12T07:43:50.470Z,73.90
2018-10-12T07:46:18.769Z,73.90
2018-10-12T07:48:47.395Z,72.50
2018-10-12T07:51:15.708Z,70.60
2018-10-12T07:53:44.011Z,71.70
2018-10-12T07:56:12.393Z,72.20
2018-10-12T07:58:40.735Z,71.80
2018-10-12T08:01:09.036Z,71.50
2018-10-12T08:03:37.341Z,70.20
2018-10-12T08:06:05.648Z,68.70
2018-10-12T08:08:33.985Z,67.00
2018-10-12T08:11:02.351Z,64.50
2018-10-12T08:13:30.659Z,58.60
2018-10-12T08:15:59.059Z,56.20
2018-10-12T08:18:28.650Z,52.80
2018-10-12T08:20:56.942Z,49.00
2018-10-12T08:23:25.178Z,46.90
2018-10-12T08:25:53.448Z,46.80
2018-10-12T08:28:21.737Z,49.40
2018-10-12T08:30:49.958Z,49.20
2018-10-12T08:33:18.306Z,52.60
2018-10-12T08:35:46.614Z,52.50
2018-10-12T08:38:14.986Z,48.50
2018-10-12T08:40:43.282Z,46.60
2018-10-12T08:48:12.142Z,44.90
2018-10-12T08:50:40.367Z,43.50
2018-10-12T08:53:08.556Z,43.20
2018-10-12T08:55:36.825Z,42.20
2018-10-12T08:58:05.057Z,40.50
2018-10-12T09:00:33.327Z,42.00
2018-10-12T09:03:01.703Z,41.10
2018-10-12T09:05:30.029Z,40.70
2018-10-12T09:07:58.373Z,42.80
2018-10-12T09:10:26.621Z,43.00
2018-10-12T09:12:54.880Z,43.20
2018-10-12T09:15:23.162Z,42.40
2018-10-12T09:17:51.365Z,42.20
2018-10-12T09:20:20.336Z,42.60
2018-10-12T09:22:48.568Z,42.90
2018-10-12T09:25:16.813Z,42.40
2018-10-12T09:27:45.074Z,42.60
2018-10-12T09:30:13.416Z,42.80
2018-10-12T09:32:41.630Z,41.70
2018-10-12T09:35:10.893Z,41.70
2018-10-12T09:37:39.098Z,40.40
2018-10-12T09:40:07.407Z,41.50
2018-10-12T09:42:35.621Z,40.30
2018-10-12T09:45:05.168Z,39.90
2018-10-12T09:47:33.462Z,40.10
2018-10-12T09:50:01.889Z,39.50
2018-10-12T09:52:30.257Z,40.90
2018-10-12T09:54:58.764Z,41.80
2018-10-12T09:57:31.507Z,40.70
2018-10-12T10:00:00.051Z,40.40
2018-10-12T10:02:33.630Z,39.80
2018-10-12T10:05:07.943Z,40.40
2018-10-12T10:07:36.501Z,41.40
2018-10-12T10:10:05.115Z,40.90
2018-10-12T10:12:33.407Z,39.70
2018-10-12T10:15:01.811Z,39.30
2018-10-12T10:17:30.069Z,41.40
2018-10-12T10:19:58.407Z,41.80
2018-10-12T10:22:26.731Z,43.40
2018-10-12T10:24:55.018Z,46.10
2018-10-12T10:27:23.289Z,47.80
2018-10-12T10:29:51.602Z,49.00
2018-10-12T10:32:19.903Z,50.50
2018-10-12T10:36:50.796Z,51.00
2018-10-12T10:39:19.200Z,51.20
2018-10-12T10:41:47.623Z,51.30
2018-10-12T10:44:16.070Z,52.30
2018-10-12T10:46:44.504Z,54.20
2018-10-12T10:49:13.108Z,54.60
2018-10-12T10:51:41.758Z,54.60
2018-10-12T10:54:10.176Z,54.80
2018-10-12T10:56:38.721Z,55.50
2018-10-12T10:59:07.570Z,56.70
2018-10-12T11:01:35.959Z,57.10
2018-10-12T11:04:04.322Z,57.50
2018-10-12T11:06:32.702Z,57.80
2018-10-12T11:09:01.214Z,57.80
2018-10-12T11:11:29.640Z,58.10
2018-10-12T11:13:58.048Z,58.30
2018-10-12T11:16:26.532Z,57.90
2018-10-12T11:18:55.008Z,58.00
2018-10-12T11:21:23.487Z,58.10
2018-10-12T11:23:52.097Z,58.00
2018-10-12T11:26:20.993Z,57.90
2018-10-12T11:28:49.399Z,57.70
2018-10-12T11:31:17.961Z,57.30
2018-10-12T11:33:46.590Z,57.40
2018-10-12T11:36:16.126Z,57.10
2018-10-12T11:38:44.844Z,56.60
2018-10-12T11:41:13.433Z,56.70
2018-10-12T11:43:41.908Z,56.40
2018-10-12T11:46:10.326Z,56.00
2018-10-12T11:48:39.243Z,56.20
2018-10-12T11:51:07.736Z,55.70
2018-10-12T11:53:36.225Z,54.90
2018-10-12T11:56:04.669Z,55.00
2018-10-12T11:58:33.338Z,54.90
2018-10-12T12:01:02.424Z,54.70
2018-10-12T12:03:33.536Z,54.60
2018-10-12T12:06:03.254Z,54.80
2018-10-12T12:08:34.922Z,54.40
2018-10-12T12:11:03.550Z,54.80
2018-10-12T12:13:34.242Z,53.50
2018-10-12T12:16:03.168Z,53.20
2018-10-12T12:18:31.702Z,53.30
2018-10-12T12:21:00.118Z,53.10
2018-10-12T12:23:28.570Z,53.90
2018-10-12T12:25:57.072Z,53.00
2018-10-12T12:28:25.498Z,53.40
2018-10-12T12:30:54.019Z,53.30
2018-10-12T12:33:22.397Z,53.10
2018-10-12T12:35:51.394Z,53.70
2018-10-12T12:38:19.405Z,54.70
2018-10-12T12:40:47.841Z,54.50
2018-10-12T12:43:16.330Z,54.30
2018-10-12T12:45:48.105Z,53.50
2018-10-12T12:48:16.796Z,53.00
2018-10-12T12:50:45.253Z,53.10
2018-10-12T12:53:13.761Z,53.10
2018-10-12T12:55:42.207Z,54.10
2018-10-12T12:58:10.676Z,52.40
2018-10-12T13:00:39.065Z,51.10
2018-10-12T13:03:07.590Z,50.80
2018-10-12T13:05:36.072Z,50.50
2018-10-12T13:08:04.622Z,51.90
2018-10-12T13:10:33.029Z,51.80
2018-10-12T13:18:01.477Z,50.10
2018-10-12T13:20:30.074Z,50.80
2018-10-12T13:22:58.549Z,50.00
2018-10-12T13:28:26.233Z,50.40
2018-10-12T13:30:54.644Z,50.60
2018-10-12T13:33:23.110Z,50.70
2018-10-12T13:35:51.971Z,50.20
2018-10-12T13:38:30.295Z,50.40
2018-10-12T13:40:58.824Z,50.20
2018-10-12T13:43:27.169Z,50.80
2018-10-12T13:45:55.915Z,50.10
2018-10-12T13:48:24.388Z,50.30
2018-10-12T13:50:52.847Z,50.30
2018-10-12T13:53:21.281Z,50.60
2018-10-12T13:55:49.712Z,51.00
2018-10-12T13:58:20.223Z,51.80
2018-10-12T14:00:48.669Z,50.50
2018-10-12T14:03:17.069Z,50.30
2018-10-12T14:05:45.681Z,51.60
2018-10-12T14:08:14.286Z,50.90
2018-10-12T14:10:42.945Z,51.80
2018-10-12T14:13:11.405Z,51.10
2018-10-12T14:15:40.092Z,50.90
2018-10-12T14:18:08.519Z,50.90
2018-10-12T14:20:37.196Z,51.50
2018-10-12T14:28:06.034Z,51.90
2018-10-12T14:30:34.555Z,51.90
2018-10-12T14:33:03.107Z,51.90
2018-10-12T14:35:31.633Z,52.20
2018-10-12T14:38:00.118Z,52.70
2018-10-12T14:40:28.228Z,52.80
2018-10-12T14:42:56.638Z,53.00
2018-10-12T14:45:26.186Z,52.70
2018-10-12T14:47:54.560Z,54.00
2018-10-12T14:50:23.062Z,53.50
2018-10-12T14:52:51.475Z,53.80
2018-10-12T14:55:19.839Z,54.60
2018-10-12T14:57:48.461Z,53.70
2018-10-12T15:00:16.805Z,53.80
2018-10-12T15:02:45.289Z,54.20
2018-10-12T15:05:14.247Z,55.00
2018-10-12T15:07:42.791Z,54.70
2018-10-12T15:10:11.018Z,55.00
2018-10-12T15:12:39.613Z,54.70
2018-10-12T15:15:16.768Z,54.80
2018-10-12T15:17:45.370Z,54.90
2018-10-12T15:20:13.768Z,55.10
2018-10-12T15:22:42.151Z,55.40
2018-10-12T15:25:10.764Z,55.20
2018-10-12T15:27:40.401Z,55.30
2018-10-12T15:30:09.065Z,55.70
2018-10-12T15:32:38.053Z,55.70
2018-10-12T15:35:07.229Z,55.90
2018-10-12T15:37:35.641Z,55.70
2018-10-12T15:40:03.852Z,56.00
2018-10-12T15:42:32.210Z,56.20
2018-10-12T15:45:00.889Z,56.00
2018-10-12T15:47:29.351Z,56.20
2018-10-12T15:49:57.705Z,56.50
2018-10-12T15:52:27.882Z,56.80
2018-10-12T15:54:56.342Z,56.70
2018-10-12T15:57:25.888Z,56.60
2018-10-12T15:59:54.310Z,56.90
2018-10-12T16:02:22.617Z,57.20
2018-10-12T16:04:51.003Z,57.80
2018-10-12T16:07:19.774Z,58.00
2018-10-12T16:09:50.007Z,58.40
2018-10-12T16:12:19.389Z,58.70
2018-10-12T16:14:48.282Z,59.00
2018-10-12T16:17:16.786Z,59.10
2018-10-12T16:19:45.220Z,59.50
2018-10-12T16:27:12.884Z,59.40
2018-10-12T16:29:41.218Z,60.30
2018-10-12T16:32:09.490Z,60.70
2018-10-12T16:34:37.875Z,60.90
2018-10-12T16:37:06.523Z,60.40
2018-10-12T16:39:35.291Z,60.30
2018-10-12T16:42:03.760Z,60.30
2018-10-12T16:44:32.244Z,61.00
2018-10-12T16:47:00.563Z,61.20
2018-10-12T16:49:29.029Z,61.30
2018-10-12T16:52:01.724Z,61.20
2018-10-12T16:54:30.343Z,61.80
2018-10-12T16:56:58.891Z,62.30
2018-10-12T16:59:27.458Z,63.10
2018-10-12T17:01:57.561Z,62.20
2018-10-12T17:04:26.029Z,62.40
2018-10-12T17:11:52.881Z,62.60
2018-10-12T17:14:21.603Z,63.40
2018-10-12T17:16:50.454Z,63.40
2018-10-12T17:19:18.803Z,64.00
2018-10-12T17:21:47.267Z,64.20
2018-10-12T17:24:15.830Z,64.60
2018-10-12T17:26:44.128Z,65.10
2018-10-12T17:29:13.234Z,65.90
2018-10-12T17:31:41.681Z,66.40
2018-10-12T17:34:10.151Z,66.60
2018-10-12T17:36:38.506Z,67.30
2018-10-12T17:39:11.738Z,67.50
2018-10-12T17:41:40.210Z,67.80
2018-10-12T17:44:09.062Z,67.80
2018-10-12T17:46:37.479Z,68.70
2018-10-12T17:49:05.892Z,68.20
2018-10-12T17:51:34.778Z,68.70
2018-10-12T17:54:02.999Z,68.70
2018-10-12T17:56:31.489Z,69.40
2018-10-12T17:58:59.810Z,69.30
2018-10-12T18:01:29.564Z,69.60
2018-10-12T18:03:58.025Z,70.00
2018-10-12T18:06:26.458Z,70.40
2018-10-12T18:08:55.084Z,70.80
2018-10-12T18:11:23.383Z,71.00
2018-10-12T18:18:55.803Z,71.10
2018-10-12T18:21:24.232Z,72.00
2018-10-12T18:23:52.836Z,72.30
2018-10-12T18:26:21.299Z,72.20
2018-10-12T18:28:49.961Z,72.70
2018-10-12T18:31:18.580Z,72.40
2018-10-12T18:33:47.133Z,72.20
2018-10-12T18:36:16.409Z,72.60
2018-10-12T18:38:44.758Z,72.60
2018-10-12T18:41:13.087Z,72.90
2018-10-12T18:43:42.506Z,72.90
2018-10-12T18:46:10.856Z,73.20
2018-10-12T18:48:39.195Z,73.30
2018-10-12T18:51:07.961Z,73.70
2018-10-12T18:53:37.609Z,73.80
2018-10-12T18:56:05.922Z,74.20
2018-10-12T18:58:35.446Z,74.50
2018-10-12T19:01:03.840Z,74.60
2018-10-12T19:03:32.196Z,74.60
2018-10-12T19:06:00.536Z,74.90
2018-10-12T19:08:28.918Z,74.90
2018-10-12T19:10:57.299Z,74.90
2018-10-12T19:13:25.628Z,74.90
2018-10-12T19:15:54.119Z,75.00
2018-10-12T19:18:22.535Z,75.50
2018-10-12T19:20:51.025Z,75.70
2018-10-12T19:23:22.806Z,75.70
2018-10-12T19:25:51.133Z,75.80
2018-10-12T19:28:22.500Z,76.20
2018-10-12T19:30:50.773Z,75.70
2018-10-12T19:33:20.126Z,75.70
2018-10-12T19:35:48.534Z,75.60
2018-10-12T19:38:18.032Z,75.90
2018-10-12T19:40:46.368Z,75.30
2018-10-12T19:43:16.118Z,75.10
2018-10-12T19:45:44.344Z,75.30
2018-10-12T19:48:12.683Z,75.50
2018-10-12T19:50:40.928Z,75.50
2018-10-12T19:53:09.157Z,75.50
2018-10-12T19:55:45.355Z,75.70
2018-10-12T19:58:23.367Z,75.20
2018-10-12T20:00:53.048Z,75.40
2018-10-12T20:03:25.002Z,75.80
2018-10-12T20:06:00.079Z,75.40
2018-10-12T20:08:45.180Z,76.00
2018-10-12T20:11:13.527Z,76.30
2018-10-12T20:13:42.377Z,75.70
2018-10-12T20:16:10.783Z,75.70
2018-10-12T20:18:39.260Z,75.90
2018-10-12T20:21:08.854Z,75.90
2018-10-12T20:23:37.417Z,75.90
2018-10-12T20:26:06.068Z,76.20
2018-10-12T20:28:34.407Z,76.00
2018-10-12T20:31:03.951Z,75.80
2018-10-12T20:33:32.368Z,75.80
2018-10-12T20:36:01.559Z,76.00
2018-10-12T20:38:31.415Z,75.60
2018-10-12T20:41:03.504Z,75.70
2018-10-12T20:43:32.040Z,75.60
2018-10-12T20:46:02.110Z,75.30
2018-10-12T20:48:32.606Z,75.80
2018-10-12T20:51:03.595Z,75.30
2018-10-12T20:53:31.991Z,75.40
2018-10-12T20:56:00.334Z,75.10
2018-10-12T20:58:28.680Z,75.20
2018-10-12T21:00:56.965Z,74.80
2018-10-12T21:03:25.493Z,74.80
2018-10-12T21:05:53.989Z,74.90
2018-10-12T21:08:22.425Z,75.10
2018-10-12T21:10:50.887Z,74.90
2018-10-12T21:13:19.280Z,75.20
2018-10-12T21:15:47.800Z,75.30
2018-10-12T21:18:16.336Z,75.70
2018-10-12T21:20:44.944Z,75.80
2018-10-12T21:23:16.253Z,75.60
2018-10-12T21:25:46.667Z,76.70
2018-10-12T21:28:15.191Z,76.20
2018-10-12T21:30:45.317Z,75.60
2018-10-12T21:33:13.825Z,75.60
2018-10-12T21:35:43.805Z,75.70
2018-10-12T21:38:12.917Z,75.90
2018-10-12T21:40:41.339Z,76.20
2018-10-12T21:43:10.042Z,76.10
2018-10-12T21:45:38.557Z,76.10
2018-10-12T21:48:06.837Z,76.20
2018-10-12T21:50:35.184Z,76.00
2018-10-12T21:53:03.390Z,76.10
2018-10-12T21:55:32.240Z,76.10
2018-10-12T21:58:03.866Z,75.60
2018-10-12T22:00:32.233Z,75.50
2018-10-12T22:03:00.960Z,75.10
2018-10-12T22:05:29.248Z,75.30
2018-10-12T22:07:57.580Z,75.00
2018-10-12T22:10:25.938Z,74.70
2018-10-12T22:12:54.541Z,74.60
2018-10-12T22:15:22.949Z,74.80
2018-10-12T22:17:51.260Z,74.90
2018-10-12T22:20:19.507Z,74.80
2018-10-12T22:22:47.734Z,74.90
2018-10-12T22:25:16.160Z,74.80
2018-10-12T22:27:44.514Z,74.80
2018-10-12T22:30:12.781Z,74.50
2018-10-12T22:32:41.134Z,74.00
2018-10-12T22:35:09.379Z,73.80
2018-10-12T22:37:37.710Z,73.90
2018-10-12T22:40:06.073Z,73.90
2018-10-12T22:42:34.337Z,74.00
2018-10-12T22:45:02.649Z,74.00
2018-10-12T22:47:31.002Z,74.20
2018-10-12T22:49:59.410Z,73.90
2018-10-12T22:52:27.725Z,74.00
2018-10-12T23:01:59.050Z,74.20
2018-10-12T23:04:27.399Z,74.30
2018-10-12T23:06:56.242Z,74.00
2018-10-12T23:09:24.539Z,73.80
2018-10-12T23:11:52.784Z,74.10
2018-10-12T23:14:21.093Z,73.70
2018-10-12T23:16:49.505Z,73.90
2018-10-12T23:24:17.128Z,74.30
2018-10-12T23:26:45.435Z,74.30
2018-10-12T23:29:13.593Z,74.60
2018-10-12T23:31:42.023Z,74.60
2018-10-12T23:34:10.515Z,74.60
2018-10-12T23:36:38.802Z,74.80
2018-10-12T23:39:08.109Z,74.80
2018-10-12T23:41:37.513Z,74.60
2018-10-12T23:44:06.081Z,74.40
2018-10-12T23:46:34.443Z,74.50
2018-10-12T23:49:02.696Z,74.80
2018-10-12T23:51:31.205Z,75.00
2018-10-12T23:53:59.698Z,74.60
2018-10-12T23:56:28.166Z,74.30
2018-10-12T23:58:56.571Z,74.30
